TAF Text Data
IDs:
Format:
Raw Decoded Include METAR

Data at: 1322 UTC 17 Sep 2019

KMKL 171133Z 1712/1812 VRB02KT P6SM SKC
  TEMPO 1712/1713 6SM BR
  FM171700 32006KT P6SM SCT060
  FM180100 00000KT P6SM SKC
  TEMPO 1808/1812 2SM BR